createdAt,value
2019-03-30T00:02:11.436Z,6.37
2019-03-30T00:04:37.705Z,6.00
2019-03-30T00:07:04.027Z,6.10
2019-03-30T00:09:30.282Z,7.10
2019-03-30T00:11:57.945Z,6.23
2019-03-30T00:14:24.414Z,6.63
2019-03-30T00:16:50.633Z,6.07
2019-03-30T00:19:16.902Z,5.87
2019-03-30T00:21:43.134Z,6.10
2019-03-30T00:24:09.390Z,5.93
2019-03-30T00:26:35.653Z,6.23
2019-03-30T00:29:01.881Z,6.80
2019-03-30T00:31:28.230Z,6.80
2019-03-30T00:33:54.463Z,5.87
2019-03-30T00:36:20.813Z,6.67
2019-03-30T00:38:47.170Z,7.43
2019-03-30T00:41:13.550Z,6.63
2019-03-30T00:43:39.774Z,6.77
2019-03-30T00:46:06.015Z,6.90
2019-03-30T00:48:32.266Z,6.03
2019-03-30T00:50:58.495Z,6.30
2019-03-30T00:53:24.742Z,6.50
2019-03-30T00:55:51.082Z,7.23
2019-03-30T00:58:17.341Z,6.23
2019-03-30T01:00:43.566Z,7.60
2019-03-30T01:03:09.813Z,6.30
2019-03-30T01:05:35.947Z,6.20
2019-03-30T01:08:02.174Z,6.87
2019-03-30T01:10:28.429Z,6.83
2019-03-30T01:12:54.765Z,7.53
2019-03-30T01:15:21.118Z,7.37
2019-03-30T01:17:47.350Z,6.83
2019-03-30T01:20:13.802Z,7.23
2019-03-30T01:22:40.030Z,6.53
2019-03-30T01:25:06.978Z,6.90
2019-03-30T01:27:33.208Z,7.10
2019-03-30T01:29:59.458Z,6.97
2019-03-30T01:32:25.703Z,7.27
2019-03-30T01:34:51.953Z,7.40
2019-03-30T01:37:18.196Z,7.40
2019-03-30T01:39:44.446Z,6.57
2019-03-30T01:42:10.682Z,7.93
2019-03-30T01:44:37.070Z,6.70
2019-03-30T01:47:03.341Z,7.07
2019-03-30T01:49:29.658Z,7.30
2019-03-30T01:51:55.902Z,7.23
2019-03-30T01:54:22.139Z,8.23
2019-03-30T01:56:48.395Z,7.30
2019-03-30T01:59:14.638Z,7.57
2019-03-30T02:01:40.998Z,7.57
2019-03-30T02:04:07.242Z,8.67
2019-03-30T02:06:33.790Z,7.23
2019-03-30T02:09:00.114Z,7.47
2019-03-30T02:11:26.357Z,8.03
2019-03-30T02:13:52.626Z,8.23
2019-03-30T02:16:18.942Z,6.43
2019-03-30T02:18:45.310Z,7.70
2019-03-30T02:21:11.527Z,7.17
2019-03-30T02:23:37.782Z,7.53
2019-03-30T02:26:04.006Z,7.53
2019-03-30T02:28:30.272Z,8.50
2019-03-30T02:30:56.502Z,7.20
2019-03-30T02:33:22.760Z,7.63
2019-03-30T02:35:48.995Z,7.47
2019-03-30T02:38:15.260Z,6.43
2019-03-30T02:40:41.498Z,6.70
2019-03-30T02:43:07.831Z,8.40
2019-03-30T02:45:34.074Z,7.93
2019-03-30T02:48:00.317Z,7.83
2019-03-30T02:50:26.586Z,6.53
2019-03-30T02:52:52.807Z,7.67
2019-03-30T02:55:19.069Z,7.87
2019-03-30T02:57:45.283Z,7.03
2019-03-30T03:00:13.741Z,7.23
2019-03-30T03:02:39.970Z,6.83
2019-03-30T03:05:07.251Z,7.80
2019-03-30T03:07:33.484Z,7.23
2019-03-30T03:10:00.484Z,7.47
2019-03-30T03:12:27.109Z,8.50
2019-03-30T03:14:53.330Z,6.50
2019-03-30T03:17:19.589Z,6.93
2019-03-30T03:19:45.824Z,7.33
2019-03-30T03:22:12.097Z,7.87
2019-03-30T03:24:38.314Z,8.60
2019-03-30T03:27:04.580Z,7.30
2019-03-30T03:29:30.811Z,7.67
2019-03-30T03:31:57.068Z,7.23
2019-03-30T03:34:23.294Z,7.97
2019-03-30T03:36:49.526Z,8.20
2019-03-30T03:39:15.803Z,7.77
2019-03-30T03:41:42.025Z,7.73
2019-03-30T03:44:08.280Z,8.63
2019-03-30T03:46:34.505Z,7.50
2019-03-30T03:49:00.762Z,8.23
2019-03-30T03:51:27.398Z,8.33
2019-03-30T03:53:53.650Z,8.50
2019-03-30T03:56:20.807Z,6.97
2019-03-30T03:58:47.259Z,6.83
2019-03-30T04:01:14.414Z,8.93
2019-03-30T04:03:41.934Z,8.70
2019-03-30T04:06:08.187Z,7.57
2019-03-30T04:08:34.420Z,7.33
2019-03-30T04:11:02.377Z,6.77
2019-03-30T04:13:29.406Z,7.30
2019-03-30T04:15:55.963Z,8.73
2019-03-30T04:18:22.291Z,7.93
2019-03-30T04:20:48.554Z,7.60
2019-03-30T04:23:14.882Z,8.17
2019-03-30T04:25:41.144Z,8.50
2019-03-30T04:28:07.375Z,7.47
2019-03-30T04:30:33.597Z,7.87
2019-03-30T04:32:59.854Z,9.40
2019-03-30T04:35:26.088Z,9.37
2019-03-30T04:37:52.344Z,9.43
2019-03-30T04:40:18.602Z,8.83
2019-03-30T04:42:44.869Z,7.60
2019-03-30T04:45:11.202Z,8.90
2019-03-30T04:47:37.446Z,9.10
2019-03-30T04:50:04.787Z,8.20
2019-03-30T04:52:31.134Z,9.03
2019-03-30T04:54:57.362Z,8.33
2019-03-30T04:57:24.049Z,9.73
2019-03-30T04:59:50.281Z,10.13
2019-03-30T05:02:16.514Z,9.00
2019-03-30T05:04:42.772Z,9.03
2019-03-30T05:07:09.002Z,7.30
2019-03-30T05:09:35.272Z,8.83
2019-03-30T05:12:01.490Z,10.07
2019-03-30T05:14:27.741Z,10.37
2019-03-30T05:16:53.982Z,10.07
2019-03-30T05:19:20.210Z,14.27
2019-03-30T05:21:46.454Z,21.77
2019-03-30T05:24:12.697Z,15.17
2019-03-30T05:26:38.932Z,23.90
2019-03-30T05:29:05.158Z,999.90
2019-03-30T05:31:31.414Z,999.90
2019-03-30T05:33:57.658Z,999.90
2019-03-30T05:36:23.916Z,999.90
2019-03-30T05:38:50.162Z,999.90
2019-03-30T05:41:16.438Z,999.90
2019-03-30T05:43:42.670Z,999.90
2019-03-30T05:46:08.996Z,999.90
2019-03-30T05:48:35.263Z,999.90
2019-03-30T05:51:01.478Z,999.90
2019-03-30T05:53:27.753Z,999.90
2019-03-30T05:55:53.970Z,999.90
2019-03-30T05:58:20.219Z,999.90
2019-03-30T06:00:46.445Z,999.90
2019-03-30T06:03:12.716Z,999.90
2019-03-30T06:05:38.935Z,999.90
2019-03-30T06:08:05.174Z,37.23
2019-03-30T06:10:31.430Z,32.33
2019-03-30T06:12:57.673Z,26.47
2019-03-30T06:15:23.939Z,27.27
2019-03-30T06:17:50.427Z,20.40
2019-03-30T06:20:16.675Z,20.57
2019-03-30T06:22:42.906Z,14.45
2019-03-30T06:25:09.269Z,13.68
2019-03-30T06:27:35.594Z,12.78
2019-03-30T06:30:11.798Z,14.68
2019-03-30T06:32:38.038Z,11.18
2019-03-30T06:35:04.257Z,9.20
2019-03-30T06:37:30.522Z,8.20
2019-03-30T06:39:56.794Z,8.03
2019-03-30T06:42:23.054Z,8.30
2019-03-30T06:44:49.293Z,8.23
2019-03-30T06:47:15.531Z,7.40
2019-03-30T06:49:41.770Z,7.20
2019-03-30T06:52:08.026Z,6.97
2019-03-30T06:54:34.255Z,6.92
2019-03-30T06:57:00.507Z,7.42
2019-03-30T06:59:26.734Z,7.42
2019-03-30T07:01:52.961Z,7.08
2019-03-30T07:04:19.228Z,8.88
2019-03-30T07:06:45.564Z,8.05
2019-03-30T07:09:11.814Z,6.97
2019-03-30T07:11:41.055Z,6.75
2019-03-30T07:14:07.498Z,6.58
2019-03-30T07:16:35.231Z,6.40
2019-03-30T07:19:02.586Z,6.70
2019-03-30T07:21:28.814Z,7.22
2019-03-30T07:23:55.047Z,7.50
2019-03-30T07:26:21.311Z,6.35
2019-03-30T07:28:47.543Z,6.20
2019-03-30T07:31:13.794Z,7.47
2019-03-30T07:33:40.041Z,6.25
2019-03-30T07:36:06.299Z,6.28
2019-03-30T07:38:32.526Z,6.37
2019-03-30T07:40:58.835Z,6.10
2019-03-30T07:43:25.179Z,5.92
2019-03-30T07:45:51.414Z,6.12
2019-03-30T07:48:17.670Z,6.17
2019-03-30T07:50:45.834Z,6.75
2019-03-30T07:53:25.210Z,6.33
2019-03-30T07:55:40.110Z,6.55
2019-03-30T07:58:06.380Z,7.10
2019-03-30T08:00:32.600Z,5.87
2019-03-30T08:02:59.142Z,7.10
2019-03-30T08:05:25.454Z,6.17
2019-03-30T08:07:51.661Z,6.60
2019-03-30T08:10:18.021Z,6.78
2019-03-30T08:12:44.246Z,7.20
2019-03-30T08:15:11.017Z,7.70
2019-03-30T08:17:37.246Z,8.20
2019-03-30T08:20:05.195Z,9.35
2019-03-30T08:22:31.417Z,8.18
2019-03-30T08:24:57.669Z,8.08
2019-03-30T08:27:23.907Z,8.13
2019-03-30T08:29:50.168Z,7.80
2019-03-30T08:32:16.393Z,8.28
2019-03-30T08:34:42.615Z,7.00
2019-03-30T08:37:08.903Z,6.97
2019-03-30T08:39:35.119Z,7.40
2019-03-30T08:42:01.397Z,7.20
2019-03-30T08:44:27.618Z,7.83
2019-03-30T08:46:53.877Z,7.37
2019-03-30T08:49:20.107Z,9.63
2019-03-30T08:51:46.358Z,8.20
2019-03-30T08:54:12.707Z,8.33
2019-03-30T08:56:38.982Z,7.47
2019-03-30T08:59:05.257Z,6.93
2019-03-30T09:01:31.482Z,7.90
2019-03-30T09:03:57.741Z,8.47
2019-03-30T09:06:23.968Z,8.37
2019-03-30T09:08:50.215Z,6.67
2019-03-30T09:11:16.441Z,7.07
2019-03-30T09:13:42.693Z,7.73
2019-03-30T09:16:08.926Z,7.50
2019-03-30T09:18:35.186Z,6.97
2019-03-30T09:21:01.417Z,6.37
2019-03-30T09:23:27.668Z,7.43
2019-03-30T09:25:53.903Z,7.13
2019-03-30T09:28:20.165Z,7.13
2019-03-30T09:30:46.402Z,7.03
2019-03-30T09:33:12.628Z,7.57
2019-03-30T09:35:38.893Z,6.77
2019-03-30T09:38:05.561Z,7.70
2019-03-30T09:40:31.952Z,6.93
2019-03-30T09:42:58.178Z,7.37
2019-03-30T09:45:24.421Z,7.47
2019-03-30T09:47:50.650Z,7.23
2019-03-30T09:50:17.217Z,6.07
2019-03-30T09:52:43.452Z,7.13
2019-03-30T09:55:09.786Z,6.60
2019-03-30T09:57:36.051Z,7.00
2019-03-30T10:00:03.995Z,8.93
2019-03-30T10:02:30.249Z,11.23
2019-03-30T10:04:56.513Z,10.30
2019-03-30T10:07:22.761Z,8.70
2019-03-30T10:09:48.993Z,7.73
2019-03-30T10:12:15.273Z,9.27
2019-03-30T10:14:41.863Z,8.50
2019-03-30T10:17:08.209Z,7.87
2019-03-30T10:19:34.429Z,8.97
2019-03-30T10:22:00.705Z,7.40
2019-03-30T10:24:37.453Z,7.17
2019-03-30T10:26:55.150Z,10.03
2019-03-30T10:29:21.375Z,6.83
2019-03-30T10:31:47.608Z,5.90
2019-03-30T10:34:13.855Z,5.70
2019-03-30T10:36:40.079Z,4.73
2019-03-30T10:39:06.829Z,4.17
2019-03-30T10:41:33.077Z,4.20
2019-03-30T10:43:59.366Z,4.90
2019-03-30T10:46:25.590Z,6.87
2019-03-30T10:48:51.810Z,5.83
2019-03-30T10:51:18.069Z,4.83
2019-03-30T10:53:44.302Z,5.33
2019-03-30T10:56:10.546Z,5.10
2019-03-30T10:58:36.773Z,6.43
2019-03-30T11:01:03.026Z,5.23
2019-03-30T11:03:29.354Z,4.97
2019-03-30T11:05:55.611Z,5.20
2019-03-30T11:08:21.832Z,6.30
2019-03-30T11:10:48.104Z,5.70
2019-03-30T11:13:14.350Z,6.30
2019-03-30T11:15:40.577Z,5.47
2019-03-30T11:18:06.995Z,4.93
2019-03-30T11:20:33.687Z,4.93
2019-03-30T11:23:00.451Z,4.40
2019-03-30T11:25:27.183Z,4.90
2019-03-30T11:27:54.009Z,5.73
2019-03-30T11:30:20.399Z,5.60
2019-03-30T11:32:47.097Z,5.00
2019-03-30T11:35:13.323Z,5.50
2019-03-30T11:37:39.582Z,4.63
2019-03-30T11:40:06.869Z,4.60
2019-03-30T11:42:33.153Z,4.93
2019-03-30T11:44:59.871Z,4.97
2019-03-30T11:47:26.228Z,4.93
2019-03-30T11:49:52.626Z,4.80
2019-03-30T11:52:19.399Z,4.90
2019-03-30T11:54:45.807Z,5.50
2019-03-30T11:57:12.027Z,5.30
2019-03-30T11:59:38.295Z,5.50
2019-03-30T12:02:04.843Z,5.77
2019-03-30T12:04:31.651Z,5.13
2019-03-30T12:06:58.110Z,5.80
2019-03-30T12:09:24.336Z,4.70
2019-03-30T12:11:50.581Z,5.40
2019-03-30T12:14:16.811Z,3.87
2019-03-30T12:16:43.062Z,4.23
2019-03-30T12:19:09.309Z,4.87
2019-03-30T12:21:35.557Z,5.13
2019-03-30T12:24:01.861Z,4.33
2019-03-30T12:26:28.099Z,4.30
2019-03-30T12:28:54.339Z,4.23
2019-03-30T12:31:20.558Z,4.30
2019-03-30T12:33:46.813Z,4.50
2019-03-30T12:36:13.038Z,4.13
2019-03-30T12:38:39.287Z,3.90
2019-03-30T12:41:05.553Z,4.50
2019-03-30T12:43:31.807Z,4.73
2019-03-30T12:45:58.044Z,4.07
2019-03-30T12:48:24.418Z,4.20
2019-03-30T12:50:50.854Z,5.03
2019-03-30T12:53:17.105Z,5.17
2019-03-30T12:55:49.111Z,5.53
2019-03-30T12:58:11.471Z,6.00
2019-03-30T13:00:37.714Z,6.33
2019-03-30T13:03:04.190Z,6.40
2019-03-30T13:05:30.436Z,5.50
2019-03-30T13:07:56.703Z,6.20
2019-03-30T13:10:22.955Z,5.47
2019-03-30T13:12:49.178Z,4.43
2019-03-30T13:15:15.656Z,4.10
2019-03-30T13:17:41.874Z,4.97
2019-03-30T13:20:08.198Z,4.53
2019-03-30T13:22:34.486Z,4.53
2019-03-30T13:25:00.716Z,5.50
2019-03-30T13:27:26.963Z,5.03
2019-03-30T13:29:53.185Z,5.00
2019-03-30T13:32:19.446Z,4.33
2019-03-30T13:34:45.675Z,4.40
2019-03-30T13:37:15.892Z,5.70
2019-03-30T13:39:42.616Z,5.57
2019-03-30T13:42:08.866Z,6.27
2019-03-30T13:44:35.139Z,6.63
2019-03-30T13:47:01.399Z,6.77
2019-03-30T13:49:29.593Z,6.20
2019-03-30T13:51:55.697Z,4.60
2019-03-30T13:54:21.997Z,5.60
2019-03-30T13:56:48.239Z,5.03
2019-03-30T13:59:14.594Z,5.57
2019-03-30T14:01:40.820Z,12.47
2019-03-30T14:04:07.078Z,7.50
2019-03-30T14:06:33.306Z,5.37
2019-03-30T14:08:59.586Z,4.57
2019-03-30T14:11:25.811Z,4.43
2019-03-30T14:13:52.044Z,4.43
2019-03-30T14:16:18.299Z,3.70
2019-03-30T14:18:44.583Z,5.07
2019-03-30T14:21:11.002Z,5.40
2019-03-30T14:23:37.292Z,5.37
2019-03-30T14:26:03.552Z,6.57
2019-03-30T14:28:29.787Z,6.57
2019-03-30T14:30:58.833Z,5.00
2019-03-30T14:33:25.210Z,4.80
2019-03-30T14:35:51.447Z,3.83
2019-03-30T14:38:17.698Z,5.83
2019-03-30T14:40:43.954Z,6.17
2019-03-30T14:43:10.901Z,5.33
2019-03-30T14:45:37.138Z,4.40
2019-03-30T14:48:03.385Z,6.23
2019-03-30T14:50:29.713Z,5.67
2019-03-30T14:52:56.078Z,4.97
2019-03-30T14:55:22.312Z,4.60
2019-03-30T14:57:48.590Z,4.37
2019-03-30T15:00:15.047Z,6.12
2019-03-30T15:02:41.251Z,5.43
2019-03-30T15:05:07.717Z,5.27
2019-03-30T15:07:33.943Z,5.40
2019-03-30T15:10:00.369Z,5.47
2019-03-30T15:12:26.630Z,4.67
2019-03-30T15:14:52.903Z,4.87
2019-03-30T15:17:19.146Z,4.90
2019-03-30T15:19:45.435Z,5.70
2019-03-30T15:22:11.998Z,4.93
2019-03-30T15:24:38.256Z,5.60
2019-03-30T15:27:04.486Z,5.30
2019-03-30T15:29:30.721Z,5.17
2019-03-30T15:31:56.979Z,5.00
2019-03-30T15:34:23.227Z,5.37
2019-03-30T15:36:49.479Z,5.27
2019-03-30T15:39:15.722Z,5.30
2019-03-30T15:41:42.123Z,5.17
2019-03-30T15:44:08.375Z,4.60
2019-03-30T15:46:34.648Z,6.42
2019-03-30T15:49:00.861Z,5.10
2019-03-30T15:51:27.119Z,5.77
2019-03-30T15:53:53.349Z,4.53
2019-03-30T15:56:19.627Z,5.40
2019-03-30T15:58:45.842Z,4.70
2019-03-30T16:01:12.470Z,4.70
2019-03-30T16:03:38.703Z,4.87
2019-03-30T16:06:05.063Z,4.77
2019-03-30T16:08:31.310Z,4.90
2019-03-30T16:10:57.555Z,7.55
2019-03-30T16:13:23.813Z,5.93
2019-03-30T16:15:50.134Z,4.50
2019-03-30T16:18:16.402Z,5.60
2019-03-30T16:20:42.933Z,4.30
2019-03-30T16:23:09.239Z,4.90
2019-03-30T16:25:35.466Z,4.17
2019-03-30T16:28:01.923Z,5.00
2019-03-30T16:30:28.354Z,5.47
2019-03-30T16:32:54.603Z,7.53
2019-03-30T16:35:20.950Z,7.47
2019-03-30T16:37:47.184Z,8.68
2019-03-30T16:40:13.438Z,6.43
2019-03-30T16:42:39.801Z,5.33
2019-03-30T16:45:06.680Z,7.57
2019-03-30T16:47:32.929Z,6.80
2019-03-30T16:49:59.178Z,5.67
2019-03-30T16:52:25.502Z,5.27
2019-03-30T16:54:51.762Z,4.60
2019-03-30T16:57:18.094Z,4.70
2019-03-30T16:59:44.462Z,4.93
2019-03-30T17:02:10.692Z,4.33
2019-03-30T17:04:36.915Z,4.50
2019-03-30T17:07:03.274Z,4.50
2019-03-30T17:09:29.506Z,4.13
2019-03-30T17:11:55.774Z,4.77
2019-03-30T17:14:22.615Z,4.50
2019-03-30T17:16:48.862Z,4.77
2019-03-30T17:19:15.094Z,4.57
2019-03-30T17:21:41.355Z,7.33
2019-03-30T17:24:07.587Z,5.77
2019-03-30T17:26:33.839Z,5.63
2019-03-30T17:29:00.095Z,7.47
2019-03-30T17:31:26.406Z,7.90
2019-03-30T17:33:52.637Z,5.93
2019-03-30T17:36:18.866Z,4.87
2019-03-30T17:38:45.149Z,7.72
2019-03-30T17:41:11.403Z,5.13
2019-03-30T17:43:37.677Z,5.10
2019-03-30T17:46:04.116Z,5.40
2019-03-30T17:48:30.379Z,5.00
2019-03-30T17:50:58.335Z,4.63
2019-03-30T17:53:24.704Z,4.40
2019-03-30T17:55:50.930Z,4.23
2019-03-30T17:58:17.501Z,6.60
2019-03-30T18:00:43.731Z,6.55
2019-03-30T18:03:09.983Z,5.77
2019-03-30T18:05:36.222Z,5.37
2019-03-30T18:08:02.691Z,4.63
2019-03-30T18:10:29.182Z,4.80
2019-03-30T18:12:55.433Z,4.50
2019-03-30T18:15:21.702Z,4.17
2019-03-30T18:17:47.942Z,4.57
2019-03-30T18:20:14.429Z,5.13
2019-03-30T18:22:40.670Z,5.00
2019-03-30T18:25:07.141Z,4.83
2019-03-30T18:27:33.364Z,5.03
2019-03-30T18:29:59.630Z,5.90
2019-03-30T18:32:25.931Z,8.15
2019-03-30T18:34:52.329Z,6.47
2019-03-30T18:37:19.070Z,5.07
2019-03-30T18:39:45.339Z,5.90
2019-03-30T18:42:11.676Z,5.30
2019-03-30T18:44:38.211Z,6.13
2019-03-30T18:47:04.494Z,4.80
2019-03-30T18:49:30.738Z,5.37
2019-03-30T18:51:57.902Z,5.43
2019-03-30T18:54:25.138Z,4.93
2019-03-30T18:56:51.518Z,5.50
2019-03-30T18:59:17.754Z,5.63
2019-03-30T19:01:44.042Z,5.17
2019-03-30T19:04:10.286Z,4.90
2019-03-30T19:06:36.660Z,5.10
2019-03-30T19:09:05.295Z,4.73
2019-03-30T19:11:31.534Z,5.07
2019-03-30T19:13:57.787Z,4.93
2019-03-30T19:16:24.020Z,5.23
2019-03-30T19:18:50.342Z,4.63
2019-03-30T19:21:16.562Z,5.43
2019-03-30T19:23:42.833Z,5.40
2019-03-30T19:26:09.058Z,5.10
2019-03-30T19:28:36.185Z,6.00
2019-03-30T19:31:02.644Z,5.43
2019-03-30T19:33:28.902Z,5.97
2019-03-30T19:35:55.130Z,5.43
2019-03-30T19:38:21.355Z,5.17
2019-03-30T19:40:47.615Z,5.10
2019-03-30T19:43:14.276Z,4.90
2019-03-30T19:45:40.534Z,5.27
2019-03-30T19:48:06.774Z,4.73
2019-03-30T19:50:33.416Z,5.27
2019-03-30T19:52:59.640Z,5.50
2019-03-30T19:55:25.907Z,5.77
2019-03-30T19:57:52.144Z,5.40
2019-03-30T20:00:18.948Z,5.70
2019-03-30T20:02:45.171Z,5.80
2019-03-30T20:05:12.666Z,8.20
2019-03-30T20:07:38.901Z,8.13
2019-03-30T20:10:07.274Z,8.97
2019-03-30T20:12:33.546Z,8.67
2019-03-30T20:14:59.789Z,8.47
2019-03-30T20:17:26.381Z,7.90
2019-03-30T20:19:52.610Z,6.93
2019-03-30T20:22:19.238Z,7.17
2019-03-30T20:24:45.466Z,6.80
2019-03-30T20:27:11.745Z,6.30
2019-03-30T20:29:37.973Z,5.83
2019-03-30T20:32:04.512Z,6.93
2019-03-30T20:34:30.722Z,5.40
2019-03-30T20:36:56.990Z,6.30
2019-03-30T20:39:23.219Z,5.67
2019-03-30T20:41:49.488Z,5.93
2019-03-30T20:44:15.748Z,6.13
2019-03-30T20:46:43.695Z,6.30
2019-03-30T20:49:10.091Z,7.47
2019-03-30T20:51:36.337Z,7.20
2019-03-30T20:54:02.786Z,11.73
2019-03-30T20:56:29.029Z,10.40
2019-03-30T20:58:55.289Z,10.43
2019-03-30T21:01:21.520Z,9.13
2019-03-30T21:03:47.788Z,8.10
2019-03-30T21:06:14.046Z,7.00
2019-03-30T21:08:40.298Z,7.13
2019-03-30T21:11:06.539Z,12.00
2019-03-30T21:13:32.790Z,19.50
2019-03-30T21:15:59.006Z,15.77
2019-03-30T21:18:25.458Z,13.97
2019-03-30T21:20:51.733Z,12.47
2019-03-30T21:23:18.149Z,18.67
2019-03-30T21:25:44.399Z,37.10
2019-03-30T21:28:10.647Z,25.63
2019-03-30T21:30:37.005Z,23.77
2019-03-30T21:33:03.233Z,34.60
2019-03-30T21:35:29.511Z,25.63
2019-03-30T21:37:58.410Z,19.47
2019-03-30T21:40:23.813Z,22.97
2019-03-30T21:42:50.043Z,15.80
2019-03-30T21:45:16.335Z,11.87
2019-03-30T21:47:42.573Z,14.83
2019-03-30T21:50:09.002Z,13.70
2019-03-30T21:52:35.273Z,10.30
2019-03-30T21:55:02.102Z,7.23
2019-03-30T21:57:28.355Z,6.80
2019-03-30T22:00:08.796Z,9.97
2019-03-30T22:02:22.682Z,19.37
2019-03-30T22:04:48.910Z,36.43
2019-03-30T22:07:15.502Z,23.17
2019-03-30T22:09:41.803Z,28.57
2019-03-30T22:12:08.057Z,25.47
2019-03-30T22:14:34.276Z,19.03
2019-03-30T22:17:00.522Z,22.00
2019-03-30T22:19:26.750Z,16.50
2019-03-30T22:21:53.357Z,12.23
2019-03-30T22:24:19.578Z,22.73
2019-03-30T22:26:45.813Z,33.73
2019-03-30T22:29:12.070Z,28.50
2019-03-30T22:31:38.342Z,21.43
2019-03-30T22:34:04.594Z,33.20
2019-03-30T22:36:30.838Z,47.03
2019-03-30T22:38:57.098Z,56.10
2019-03-30T22:41:23.442Z,35.07
2019-03-30T22:43:49.679Z,19.90
2019-03-30T22:46:15.942Z,18.00
2019-03-30T22:48:42.224Z,26.57
2019-03-30T22:51:08.592Z,18.97
2019-03-30T22:53:34.818Z,23.73
2019-03-30T22:56:01.212Z,28.27
2019-03-30T22:58:27.558Z,20.93
2019-03-30T23:01:09.270Z,16.67
2019-03-30T23:03:35.510Z,15.40
2019-03-30T23:06:01.762Z,27.53
2019-03-30T23:08:27.998Z,40.30
2019-03-30T23:10:54.241Z,35.47
2019-03-30T23:13:20.486Z,22.43
2019-03-30T23:15:46.769Z,15.47
2019-03-30T23:18:12.990Z,12.73
2019-03-30T23:20:39.213Z,11.30
2019-03-30T23:23:05.474Z,12.17
2019-03-30T23:25:31.702Z,14.73
2019-03-30T23:27:57.965Z,13.80
2019-03-30T23:30:24.193Z,9.97
2019-03-30T23:32:50.445Z,19.30
2019-03-30T23:35:16.778Z,21.70
2019-03-30T23:37:43.038Z,17.60
2019-03-30T23:40:09.465Z,14.80
2019-03-30T23:42:35.744Z,11.53
2019-03-30T23:45:02.180Z,22.67
2019-03-30T23:47:28.443Z,23.03
2019-03-30T23:49:54.694Z,30.20
2019-03-30T23:52:20.921Z,29.17
2019-03-30T23:54:47.186Z,25.00
2019-03-30T23:57:13.408Z,18.23
2019-03-30T23:59:39.686Z,16.53
